Terminal Aerodrome Forecast
Issued by NWS

Home | Current Version | Previous Version | Text Only | Print | Product List | Glossary On
Versions: 1 2 3 4 5 6 7 8 9 10 11 12 13 14 15 16 17 18 19 20 21 22 23 24 25 26 27 28 29 30 31 32 33 34 35 36
000
FTUS45 KGGW 071700
TAFOLF
TAF
KOLF 071720Z 0718/0818 VRB05KT 6SM FU FEW070
     FM072100 32013KT P6SM VCSH BKN070
     FM080400 VRB05KT P6SM SCT100
      TEMPO 0810/0814 6SM FU=

USA.gov is the U.S. government's official web portal to all federal, state and local government web resources and services.